MSC Ans — H3MH — position and weather

sailwx.info

Track history (hours):
 
Tides and Currents Weather Stations Pressure Air Temp Water Temp Dewpoint Dewpoint Depression Visibility Wind Speed Wind Dir Waves Ship Positions

MSC Ans

Last reported at 2018-Feb-21 02:48 UTC. Time now 2018-Feb-21 11:06 UTC.
Position N 37°40' W 000°23'.

Length 294 m; draft 9.6 m.

Type: Ship (hazmat cat A). MMSI: 353873000.

Date/timePositionNaut miles runAvg speedWind from/ knotsBaromVisibWave heightAir tempDewpointWater temp
2018-Feb-21 02:48N 37°40' W 000°23'619.8
2018-Feb-21 02:30N 37°35' W 000°27'1319.5
2018-Feb-21 01:50N 37°25' W 000°38'618.8
2018-Feb-21 01:30N 37°21' W 000°44'918.7
2018-Feb-21 01:00N 37°15' W 000°53'1019.1
2018-Feb-21 00:28N 37°09' W 001°04'21219.2
2018-Feb-20 13:24N 35°60' W 005°13'922.5
2018-Feb-20 13:00N 35°58' W 005°24'17114.5
2018-Feb-20 01:13N 36°28' W 008°53'520.3
2018-Feb-20 01:00N 36°29' W 008°59'5313.7
2018-Feb-19 21:06N 37°18' W 009°27'221.4
2018-Feb-19 20:59N 37°20' W 009°25'1021.2
2018-Feb-19 20:30N 37°28' W 009°17'1121.4
2018-Feb-19 20:00N 37°36' W 009°08'1021.0
2018-Feb-19 19:30N 37°44' W 008°60'1019.1
2018-Feb-19 19:00N 37°51' W 008°52'510.5
2018-Feb-19 18:31N 37°56' W 008°51'0 0.1
2018-Feb-19 18:00N 37°56' W 008°51'0 0.0
2018-Feb-19 17:30N 37°56' W 008°51'0 0.0
2018-Feb-19 17:00N 37°56' W 008°51'0 0.0
2018-Feb-19 16:30N 37°56' W 008°51'0 0.0
2018-Feb-19 16:00N 37°56' W 008°51'0 0.0
2018-Feb-19 15:30N 37°56' W 008°51'0 0.0
2018-Feb-19 15:00N 37°56' W 008°51'0 0.0
2018-Feb-19 14:30N 37°56' W 008°51'0 0.0
2018-Feb-19 14:00N 37°56' W 008°51'0 0.0
2018-Feb-19 13:30N 37°56' W 008°51'0 0.0
2018-Feb-19 13:00N 37°56' W 008°51'0 0.0
2018-Feb-19 12:30N 37°56' W 008°51'0 0.0
2018-Feb-19 12:00N 37°56' W 008°51'0 0.0
2018-Feb-19 11:30N 37°56' W 008°51'0 0.0
2018-Feb-19 11:00N 37°56' W 008°51'0 0.3
2018-Feb-19 10:30N 37°56' W 008°51'2 4.1
2018-Feb-19 10:00N 37°54' W 008°50'2 4.7
2018-Feb-19 09:30N 37°52' W 008°52'3 6.6
2018-Feb-19 09:00N 37°52' W 008°56'510.8
2018-Feb-19 08:30N 37°53' W 009°02'713.7
2018-Feb-19 08:00N 37°55' W 009°11'816.9
2018-Feb-19 07:30N 37°57' W 009°21'918.6
2018-Feb-19 07:00N 37°59' W 009°33'918.8
2018-Feb-19 06:30N 38°01' W 009°44'918.4
2018-Feb-19 06:00N 38°03' W 009°56'918.4
2018-Feb-19 05:30N 38°05' W 010°07'918.2
2018-Feb-19 05:00N 38°07' W 010°18'918.5
2018-Feb-19 04:30N 38°10' W 010°30'918.3
2018-Feb-19 04:00N 38°12' W 010°41'918.0
2018-Feb-19 03:30N 38°14' W 010°52'918.0
2018-Feb-19 03:00N 38°16' W 011°03'917.7
2018-Feb-19 02:30N 38°18' W 011°14'1017.9
2018-Feb-19 01:58N 38°20' W 011°27'  
2018-Feb-12 22:11N 46°50' W 071°06'315.0
2018-Feb-12 22:00N 46°50' W 071°10'  
Track history (hours):
 
Tides and Currents Weather Stations Pressure Air Temp Water Temp Dewpoint Dewpoint Depression Visibility Wind Speed Wind Dir Waves Ship Positions

MSC Ans

Last reported at 2018-Feb-21 02:48 UTC. Time now 2018-Feb-21 11:06 UTC.
Position N 37°40' W 000°23'.

Length 294 m; draft 9.6 m.

Type: Ship (hazmat cat A). MMSI: 353873000.

Date/timePositionNaut miles runAvg speedWind from/ knotsBaromVisibWave heightAir tempDewpointWater temp
2018-Feb-21 02:48N 37°40' W 000°23'619.8
2018-Feb-21 02:30N 37°35' W 000°27'1319.5
2018-Feb-21 01:50N 37°25' W 000°38'618.8
2018-Feb-21 01:30N 37°21' W 000°44'918.7
2018-Feb-21 01:00N 37°15' W 000°53'1019.1
2018-Feb-21 00:28N 37°09' W 001°04'21219.2
2018-Feb-20 13:24N 35°60' W 005°13'922.5
2018-Feb-20 13:00N 35°58' W 005°24'17114.5
2018-Feb-20 01:13N 36°28' W 008°53'520.3
2018-Feb-20 01:00N 36°29' W 008°59'5313.7
2018-Feb-19 21:06N 37°18' W 009°27'221.4
2018-Feb-19 20:59N 37°20' W 009°25'1021.2
2018-Feb-19 20:30N 37°28' W 009°17'1121.4
2018-Feb-19 20:00N 37°36' W 009°08'1021.0
2018-Feb-19 19:30N 37°44' W 008°60'1019.1
2018-Feb-19 19:00N 37°51' W 008°52'510.5
2018-Feb-19 18:31N 37°56' W 008°51'0 0.1
2018-Feb-19 18:00N 37°56' W 008°51'0 0.0
2018-Feb-19 17:30N 37°56' W 008°51'0 0.0
2018-Feb-19 17:00N 37°56' W 008°51'0 0.0
2018-Feb-19 16:30N 37°56' W 008°51'0 0.0
2018-Feb-19 16:00N 37°56' W 008°51'0 0.0
2018-Feb-19 15:30N 37°56' W 008°51'0 0.0
2018-Feb-19 15:00N 37°56' W 008°51'0 0.0
2018-Feb-19 14:30N 37°56' W 008°51'0 0.0
2018-Feb-19 14:00N 37°56' W 008°51'0 0.0
2018-Feb-19 13:30N 37°56' W 008°51'0 0.0
2018-Feb-19 13:00N 37°56' W 008°51'0 0.0
2018-Feb-19 12:30N 37°56' W 008°51'0 0.0
2018-Feb-19 12:00N 37°56' W 008°51'0 0.0
2018-Feb-19 11:30N 37°56' W 008°51'0 0.0
2018-Feb-19 11:00N 37°56' W 008°51'0 0.3
2018-Feb-19 10:30N 37°56' W 008°51'2 4.1
2018-Feb-19 10:00N 37°54' W 008°50'2 4.7
2018-Feb-19 09:30N 37°52' W 008°52'3 6.6
2018-Feb-19 09:00N 37°52' W 008°56'510.8
2018-Feb-19 08:30N 37°53' W 009°02'713.7
2018-Feb-19 08:00N 37°55' W 009°11'816.9
2018-Feb-19 07:30N 37°57' W 009°21'918.6
2018-Feb-19 07:00N 37°59' W 009°33'918.8
2018-Feb-19 06:30N 38°01' W 009°44'918.4
2018-Feb-19 06:00N 38°03' W 009°56'918.4
2018-Feb-19 05:30N 38°05' W 010°07'918.2
2018-Feb-19 05:00N 38°07' W 010°18'918.5
2018-Feb-19 04:30N 38°10' W 010°30'918.3
2018-Feb-19 04:00N 38°12' W 010°41'918.0
2018-Feb-19 03:30N 38°14' W 010°52'918.0
2018-Feb-19 03:00N 38°16' W 011°03'917.7
2018-Feb-19 02:30N 38°18' W 011°14'1017.9
2018-Feb-19 01:58N 38°20' W 011°27'  
2018-Feb-12 22:11N 46°50' W 071°06'315.0
2018-Feb-12 22:00N 46°50' W 071°10'  

Dump ship's entire track history